createdAt,value
2022-10-17T00:00:57.607Z,13.12
2022-10-17T00:04:59.580Z,13.13
2022-10-17T00:09:01.637Z,13.09
2022-10-17T00:13:04.514Z,13.04
2022-10-17T00:17:06.649Z,13.06
2022-10-17T00:21:19.824Z,13.09
2022-10-17T00:25:21.934Z,13.09
2022-10-17T00:29:23.910Z,13.07
2022-10-17T00:33:27.408Z,12.97
2022-10-17T00:37:31.968Z,12.97
2022-10-17T00:41:34.873Z,12.94
2022-10-17T00:45:40.785Z,12.91
2022-10-17T00:49:47.763Z,12.87
2022-10-17T00:53:51.878Z,12.78
2022-10-17T00:57:54.042Z,12.65
2022-10-17T01:02:17.347Z,12.66
2022-10-17T01:06:19.407Z,12.60
2022-10-17T01:10:24.134Z,12.58
2022-10-17T01:14:32.612Z,12.48
2022-10-17T01:18:57.026Z,12.41
2022-10-17T01:23:08.061Z,12.42
2022-10-17T01:27:51.331Z,12.23
2022-10-17T01:32:07.247Z,12.06
2022-10-17T01:36:14.807Z,12.01
2022-10-17T01:40:27.076Z,11.95
2022-10-17T01:44:44.275Z,12.07
2022-10-17T01:48:46.883Z,12.07
2022-10-17T01:52:53.579Z,12.09
2022-10-17T01:57:00.272Z,12.15
2022-10-17T02:01:05.607Z,12.13
2022-10-17T02:05:08.683Z,12.13
2022-10-17T02:09:24.211Z,12.12
2022-10-17T02:13:51.631Z,12.02
2022-10-17T02:17:54.817Z,11.84
2022-10-17T02:22:11.143Z,11.82
2022-10-17T02:26:33.775Z,11.85
2022-10-17T02:30:39.621Z,11.87
2022-10-17T02:34:46.635Z,11.90
2022-10-17T02:38:50.680Z,11.87
2022-10-17T02:42:54.492Z,11.84
2022-10-17T02:47:06.932Z,11.85
2022-10-17T02:51:27.244Z,11.77
2022-10-17T02:55:33.494Z,11.53
2022-10-17T02:59:37.146Z,11.46
2022-10-17T03:03:39.151Z,11.43
2022-10-17T03:07:41.233Z,11.41
2022-10-17T03:11:43.179Z,11.48
2022-10-17T03:15:45.320Z,11.55
2022-10-17T03:19:47.851Z,11.55
2022-10-17T03:23:50.165Z,11.60
2022-10-17T03:27:54.356Z,11.59
2022-10-17T03:31:56.428Z,11.51
2022-10-17T03:35:58.775Z,11.52
2022-10-17T03:40:00.842Z,11.57
2022-10-17T03:44:03.155Z,11.51
2022-10-17T03:48:06.332Z,11.51
2022-10-17T03:52:12.772Z,11.53
2022-10-17T03:56:20.662Z,11.50
2022-10-17T04:00:30.633Z,11.41
2022-10-17T04:04:33.634Z,11.39
2022-10-17T04:08:35.691Z,11.43
2022-10-17T04:12:42.298Z,11.46
2022-10-17T04:16:44.954Z,11.36
2022-10-17T04:20:51.611Z,11.26
2022-10-17T04:24:56.344Z,11.34
2022-10-17T04:29:18.519Z,11.31
2022-10-17T04:33:23.405Z,11.32
2022-10-17T04:37:25.536Z,11.35
2022-10-17T04:41:29.611Z,11.23
2022-10-17T04:45:32.089Z,11.21
2022-10-17T04:49:38.186Z,11.35
2022-10-17T04:53:46.317Z,11.40
2022-10-17T04:57:48.438Z,11.32
2022-10-17T05:01:55.847Z,11.36
2022-10-17T05:05:58.422Z,11.37
2022-10-17T05:10:00.522Z,11.20
2022-10-17T05:14:03.740Z,11.17
2022-10-17T05:18:58.193Z,11.25
2022-10-17T05:23:04.284Z,11.28
2022-10-17T05:27:10.885Z,11.29
2022-10-17T05:31:13.604Z,11.39
2022-10-17T05:35:17.622Z,11.42
2022-10-17T05:39:21.935Z,11.45
2022-10-17T05:43:25.858Z,11.42
2022-10-17T05:47:28.753Z,11.42
2022-10-17T05:51:33.771Z,11.44
2022-10-17T05:55:38.200Z,11.41
2022-10-17T05:59:40.282Z,11.45
2022-10-17T06:03:46.650Z,11.50
2022-10-17T06:07:50.267Z,11.62
2022-10-17T06:11:53.565Z,11.76
2022-10-17T06:15:55.979Z,11.81
2022-10-17T06:19:58.826Z,11.87
2022-10-17T06:24:00.912Z,12.00
2022-10-17T06:28:07.171Z,12.13
2022-10-17T06:32:12.590Z,12.22
2022-10-17T06:36:19.126Z,12.31
2022-10-17T06:40:22.489Z,12.43
2022-10-17T06:44:28.714Z,12.59
2022-10-17T06:48:57.292Z,12.75
2022-10-17T06:53:40.282Z,12.93
2022-10-17T06:58:02.673Z,13.10
2022-10-17T07:02:24.899Z,13.24
2022-10-17T07:06:31.749Z,13.43
2022-10-17T07:10:41.816Z,13.59
2022-10-17T07:14:43.834Z,13.74
2022-10-17T07:18:49.378Z,13.87
2022-10-17T07:22:53.428Z,14.04
2022-10-17T07:26:55.858Z,14.23
2022-10-17T07:31:07.419Z,14.40
2022-10-17T07:35:10.300Z,14.61
2022-10-17T07:39:12.551Z,14.76
2022-10-17T07:43:15.553Z,14.89
2022-10-17T07:47:17.545Z,15.08
2022-10-17T07:51:22.014Z,15.26
2022-10-17T07:55:24.524Z,15.44
2022-10-17T07:59:26.730Z,15.56
2022-10-17T08:03:28.992Z,15.72
2022-10-17T08:07:32.181Z,15.87
2022-10-17T08:11:36.004Z,16.12
2022-10-17T08:15:39.027Z,16.37
2022-10-17T08:19:41.299Z,16.56
2022-10-17T08:23:43.576Z,16.70
2022-10-17T08:27:45.959Z,16.83
2022-10-17T08:31:49.919Z,17.07
2022-10-17T08:35:53.077Z,17.19
2022-10-17T08:39:55.967Z,17.42
2022-10-17T08:44:05.891Z,17.66
2022-10-17T08:48:15.927Z,17.88
2022-10-17T08:52:41.502Z,18.03
2022-10-17T08:56:49.280Z,18.28
2022-10-17T09:01:04.812Z,18.46
2022-10-17T09:05:35.553Z,18.67
2022-10-17T09:09:47.673Z,18.91
2022-10-17T09:14:28.909Z,19.06
2022-10-17T09:18:34.246Z,19.27
2022-10-17T09:22:44.595Z,19.40
2022-10-17T09:26:47.035Z,19.51
2022-10-17T09:30:56.385Z,19.72
2022-10-17T09:34:58.340Z,19.88
2022-10-17T09:39:05.388Z,19.97
2022-10-17T09:43:13.514Z,20.12
2022-10-17T09:47:45.791Z,20.19
2022-10-17T09:51:48.942Z,20.28
2022-10-17T09:56:03.517Z,20.37
2022-10-17T10:00:06.964Z,20.49
2022-10-17T10:04:17.918Z,20.61
2022-10-17T10:08:20.033Z,20.74
2022-10-17T10:12:23.308Z,20.80
2022-10-17T10:16:32.934Z,21.01
2022-10-17T10:20:37.526Z,21.14
2022-10-17T10:24:39.634Z,21.26
2022-10-17T10:28:42.297Z,21.40
2022-10-17T10:32:47.616Z,21.46
2022-10-17T10:36:55.251Z,21.56
2022-10-17T10:41:07.775Z,21.72
2022-10-17T10:45:29.214Z,21.72
2022-10-17T10:49:38.964Z,21.79
2022-10-17T10:54:02.217Z,21.92
2022-10-17T10:58:26.388Z,22.16
2022-10-17T11:02:56.075Z,22.27
2022-10-17T11:07:24.255Z,22.42
2022-10-17T11:11:34.779Z,22.44
2022-10-17T11:15:44.389Z,22.37
2022-10-17T11:19:59.696Z,22.63
2022-10-17T11:24:16.562Z,22.69
2022-10-17T11:28:20.859Z,22.68
2022-10-17T11:32:22.989Z,22.83
2022-10-17T11:36:35.537Z,22.97
2022-10-17T11:40:44.239Z,23.12
2022-10-17T11:44:49.355Z,23.13
2022-10-17T11:49:02.435Z,23.09
2022-10-17T11:53:09.363Z,23.36
2022-10-17T11:57:34.936Z,23.45
2022-10-17T12:01:49.199Z,23.39
2022-10-17T12:06:00.302Z,23.54
2022-10-17T12:10:05.310Z,23.63
2022-10-17T12:14:35.345Z,23.55
2022-10-17T12:18:37.342Z,23.40
2022-10-17T12:22:50.543Z,23.40
2022-10-17T12:26:56.339Z,23.49
2022-10-17T12:31:10.115Z,23.53
2022-10-17T12:35:21.159Z,23.52
2022-10-17T12:39:26.106Z,23.62
2022-10-17T12:43:28.099Z,23.77
2022-10-17T12:47:41.877Z,23.72
2022-10-17T12:52:18.386Z,23.86
2022-10-17T12:56:29.977Z,23.75
2022-10-17T13:05:23.787Z,23.91
2022-10-17T13:09:35.593Z,23.94
2022-10-17T13:13:49.275Z,23.88
2022-10-17T13:17:59.628Z,23.84
2022-10-17T13:22:06.849Z,23.83
2022-10-17T13:26:20.665Z,23.86
2022-10-17T13:30:29.482Z,23.92
2022-10-17T13:34:34.410Z,23.85
2022-10-17T13:38:40.297Z,23.86
2022-10-17T13:42:45.075Z,23.88
2022-10-17T13:46:48.053Z,23.91
2022-10-17T13:50:53.563Z,23.82
2022-10-17T13:55:06.307Z,23.75
2022-10-17T13:59:24.363Z,23.80
2022-10-17T14:03:36.535Z,23.90
2022-10-17T14:08:12.992Z,23.86
2022-10-17T14:12:20.754Z,23.88
2022-10-17T14:16:25.381Z,23.88
2022-10-17T14:24:53.345Z,23.88
2022-10-17T14:29:18.261Z,23.81
2022-10-17T14:33:27.102Z,23.86
2022-10-17T14:37:32.263Z,23.92
2022-10-17T14:41:44.252Z,23.88
2022-10-17T14:45:46.534Z,23.86
2022-10-17T14:50:02.326Z,23.86
2022-10-17T14:54:24.929Z,23.82
2022-10-17T14:58:33.379Z,23.83
2022-10-17T15:02:36.355Z,23.83
2022-10-17T15:06:38.355Z,23.78
2022-10-17T15:10:43.110Z,23.71
2022-10-17T15:14:47.401Z,23.73
2022-10-17T15:18:50.001Z,23.69
2022-10-17T15:22:56.242Z,23.76
2022-10-17T15:26:58.220Z,23.74
2022-10-17T15:31:00.363Z,23.66
2022-10-17T15:35:02.244Z,23.63
2022-10-17T15:39:04.430Z,23.58
2022-10-17T15:43:06.384Z,23.52
2022-10-17T15:47:34.216Z,23.46
2022-10-17T15:51:36.574Z,23.34
2022-10-17T15:55:38.789Z,23.27
2022-10-17T15:59:40.981Z,23.24
2022-10-17T16:03:42.990Z,23.25
2022-10-17T16:07:48.437Z,23.05
2022-10-17T16:11:50.383Z,22.74
2022-10-17T16:15:52.923Z,22.35
2022-10-17T16:19:55.110Z,21.96
2022-10-17T16:23:57.352Z,21.57
2022-10-17T16:28:00.854Z,21.20
2022-10-17T16:32:02.795Z,20.89
2022-10-17T16:36:04.847Z,20.57
2022-10-17T16:40:07.076Z,20.28
2022-10-17T16:44:13.446Z,20.06
2022-10-17T16:48:15.502Z,19.80
2022-10-17T16:52:18.316Z,19.59
2022-10-17T16:56:22.812Z,19.34
2022-10-17T17:00:24.889Z,19.06
2022-10-17T17:04:26.895Z,18.84
2022-10-17T17:08:28.787Z,18.73
2022-10-17T17:12:33.709Z,18.65
2022-10-17T17:16:35.687Z,18.44
2022-10-17T17:20:37.688Z,18.34
2022-10-17T17:24:39.655Z,18.28
2022-10-17T17:28:43.141Z,18.08
2022-10-17T17:32:45.706Z,17.94
2022-10-17T17:36:47.704Z,17.75
2022-10-17T17:40:51.029Z,17.62
2022-10-17T17:44:53.458Z,17.45
2022-10-17T17:48:56.015Z,17.45
2022-10-17T17:52:58.050Z,17.18
2022-10-17T17:57:00.075Z,17.31
2022-10-17T18:01:14.389Z,17.29
2022-10-17T18:05:17.405Z,17.18
2022-10-17T18:09:20.396Z,17.03
2022-10-17T18:13:22.319Z,17.03
2022-10-17T18:17:25.121Z,16.91
2022-10-17T18:21:27.402Z,16.85
2022-10-17T18:25:29.408Z,16.72
2022-10-17T18:29:32.773Z,16.73
2022-10-17T18:33:35.787Z,16.63
2022-10-17T18:37:37.763Z,16.30
2022-10-17T18:41:40.364Z,16.21
2022-10-17T18:45:42.290Z,16.22
2022-10-17T18:49:44.340Z,16.16
2022-10-17T18:53:48.663Z,16.04
2022-10-17T18:57:50.564Z,15.91
2022-10-17T19:01:52.696Z,15.76
2022-10-17T19:05:56.707Z,15.79
2022-10-17T19:10:01.049Z,15.60
2022-10-17T19:14:05.602Z,15.35
2022-10-17T19:18:07.758Z,15.36
2022-10-17T19:22:10.181Z,15.21
2022-10-17T19:26:13.025Z,15.20
2022-10-17T19:30:15.269Z,15.36
2022-10-17T19:34:18.156Z,15.35
2022-10-17T19:38:20.234Z,15.37
2022-10-17T19:42:22.339Z,15.30
2022-10-17T19:46:25.992Z,15.20
2022-10-17T19:50:28.157Z,15.13
2022-10-17T19:54:30.294Z,15.19
2022-10-17T19:58:34.351Z,15.13
2022-10-17T20:02:36.322Z,15.06
2022-10-17T20:06:39.610Z,15.01
2022-10-17T20:10:42.366Z,14.93
2022-10-17T20:14:44.397Z,14.87
2022-10-17T20:18:46.493Z,14.80
2022-10-17T20:22:48.619Z,14.66
2022-10-17T20:26:57.439Z,14.54
2022-10-17T20:30:59.728Z,14.57
2022-10-17T20:35:01.936Z,14.60
2022-10-17T20:39:05.202Z,14.60
2022-10-17T20:43:08.241Z,14.51
2022-10-17T20:47:16.291Z,14.49
2022-10-17T20:51:23.184Z,14.41
2022-10-17T20:55:25.129Z,14.20
2022-10-17T20:59:28.212Z,14.25
2022-10-17T21:03:30.147Z,14.09
2022-10-17T21:07:32.297Z,14.14
2022-10-17T21:11:34.571Z,14.14
2022-10-17T21:15:37.211Z,14.13
2022-10-17T21:19:39.122Z,14.12
2022-10-17T21:23:43.489Z,14.04
2022-10-17T21:27:45.331Z,14.06
2022-10-17T21:31:47.529Z,13.96
2022-10-17T21:35:55.250Z,13.93
2022-10-17T21:39:57.160Z,13.93
2022-10-17T21:44:04.954Z,13.87
2022-10-17T21:48:13.983Z,13.87
2022-10-17T21:52:15.904Z,13.70
2022-10-17T21:56:20.790Z,13.68
2022-10-17T22:00:22.779Z,13.45
2022-10-17T22:04:24.971Z,13.56
2022-10-17T22:08:26.993Z,13.40
2022-10-17T22:12:29.281Z,13.43
2022-10-17T22:16:32.008Z,13.50
2022-10-17T22:20:35.211Z,13.55
2022-10-17T22:24:37.406Z,13.50
2022-10-17T22:28:41.071Z,13.46
2022-10-17T22:32:43.547Z,13.42
2022-10-17T22:36:47.696Z,13.45
2022-10-17T22:40:49.679Z,13.37
2022-10-17T22:44:51.703Z,13.24
2022-10-17T22:48:54.013Z,13.16
2022-10-17T22:52:55.959Z,13.23
2022-10-17T22:56:57.910Z,13.02
2022-10-17T23:01:00.051Z,12.98
2022-10-17T23:05:02.526Z,13.13
2022-10-17T23:09:04.762Z,13.15
2022-10-17T23:13:07.093Z,13.15
2022-10-17T23:17:10.244Z,13.13
2022-10-17T23:21:12.653Z,13.10
2022-10-17T23:25:15.051Z,13.13
2022-10-17T23:29:17.301Z,13.14
2022-10-17T23:33:19.205Z,13.15
2022-10-17T23:37:21.203Z,13.12
2022-10-17T23:41:23.278Z,12.93
2022-10-17T23:45:25.291Z,12.91
2022-10-17T23:49:28.065Z,12.86
2022-10-17T23:53:30.155Z,12.85
2022-10-17T23:57:32.470Z,12.85
